createdAt,value
2022-11-24T07:35:29.533Z,28.13
2022-11-24T07:36:29.395Z,28.13
2022-11-24T07:37:31.496Z,28.13
2022-11-24T07:38:29.291Z,28.13
2022-11-24T07:39:29.205Z,28.13
2022-11-24T07:40:28.993Z,28.13
2022-11-24T07:41:28.955Z,28.13
2022-11-24T07:42:28.999Z,22.50
2022-11-24T07:43:28.996Z,28.13
2022-11-24T07:44:28.818Z,28.13
2022-11-24T07:45:28.810Z,33.75
2022-11-24T07:46:28.697Z,45.00
2022-11-24T07:47:28.649Z,39.38
2022-11-24T07:48:28.555Z,45.00
2022-11-24T07:49:28.484Z,45.00
2022-11-24T07:50:28.418Z,45.00
2022-11-24T07:51:28.347Z,45.00
2022-11-24T07:52:28.279Z,45.00
2022-11-24T07:53:28.215Z,45.00
2022-11-24T07:54:28.182Z,50.63
2022-11-24T07:55:28.078Z,50.63
2022-11-24T07:56:28.011Z,50.63
2022-11-24T07:57:27.941Z,50.63
2022-11-24T07:58:32.412Z,45.00
2022-11-24T07:59:27.817Z,45.00
2022-11-24T08:00:27.744Z,50.63
2022-11-24T08:01:27.769Z,50.63
2022-11-24T08:02:27.608Z,56.25
2022-11-24T08:03:27.613Z,56.25
2022-11-24T08:04:27.477Z,56.25
2022-11-24T08:05:27.406Z,56.25
2022-11-24T08:06:31.712Z,56.25
2022-11-24T08:07:27.313Z,50.63
2022-11-24T08:08:27.206Z,45.00
2022-11-24T08:09:27.136Z,45.00
2022-11-24T08:10:27.157Z,50.63
2022-11-24T08:11:27.039Z,50.63
2022-11-24T08:12:26.933Z,56.25
2022-11-24T08:13:26.871Z,56.25
2022-11-24T08:14:26.808Z,56.25
2022-11-24T08:15:26.735Z,56.25
2022-11-24T08:16:26.769Z,56.25
2022-11-24T08:17:26.606Z,50.63
2022-11-24T08:18:26.541Z,45.00
2022-11-24T08:19:26.475Z,39.38
2022-11-24T08:20:26.492Z,39.38
2022-11-24T08:21:26.338Z,39.38
2022-11-24T08:22:26.272Z,39.38
2022-11-24T08:23:26.215Z,39.38
2022-11-24T08:24:26.146Z,39.38
2022-11-24T08:25:26.068Z,39.38
2022-11-24T08:26:26.034Z,45.00
2022-11-24T08:27:25.940Z,45.00
2022-11-24T08:28:25.872Z,45.00
2022-11-24T08:29:25.808Z,45.00
2022-11-24T08:30:25.777Z,50.63
2022-11-24T08:31:25.707Z,50.63
2022-11-24T08:32:25.655Z,50.63
2022-11-24T08:33:25.439Z,56.25
2022-11-24T08:34:27.983Z,56.25
2022-11-24T08:35:25.426Z,56.25
2022-11-24T08:36:25.342Z,56.25
2022-11-24T08:37:25.267Z,56.25
2022-11-24T08:38:25.208Z,61.88
2022-11-24T08:39:25.137Z,61.88
2022-11-24T08:40:25.074Z,56.25
2022-11-24T08:41:24.904Z,56.25
2022-11-24T08:42:24.939Z,56.25
2022-11-24T08:43:24.876Z,50.63
2022-11-24T08:44:24.809Z,50.63
2022-11-24T08:45:25.752Z,50.63
2022-11-24T08:46:24.738Z,45.00
2022-11-24T08:47:24.598Z,45.00
2022-11-24T08:48:24.539Z,45.00
2022-11-24T08:49:24.471Z,45.00
2022-11-24T08:50:24.403Z,45.00
2022-11-24T08:51:24.336Z,45.00
2022-11-24T08:52:24.272Z,45.00
2022-11-24T08:53:24.199Z,50.63
2022-11-24T08:54:24.134Z,50.63
2022-11-24T08:55:24.115Z,50.63
2022-11-24T08:56:24.007Z,50.63
2022-11-24T08:57:23.936Z,50.63
2022-11-24T08:58:23.883Z,56.25
2022-11-24T08:59:23.835Z,61.88
2022-11-24T09:00:23.752Z,67.50
2022-11-24T09:01:23.786Z,73.13
2022-11-24T09:02:23.609Z,73.13
2022-11-24T09:03:23.543Z,73.13
2022-11-24T09:10:19.177Z,73.13
2022-11-24T09:11:19.103Z,67.50
2022-11-24T09:12:19.025Z,61.88
2022-11-24T09:13:18.967Z,56.25
2022-11-24T09:14:18.901Z,50.63
2022-11-24T09:15:18.846Z,45.00
2022-11-24T09:16:18.858Z,45.00
2022-11-24T09:17:18.702Z,45.00
2022-11-24T09:18:18.657Z,45.00
2022-11-24T09:19:18.611Z,50.63
2022-11-24T09:20:18.514Z,56.25
2022-11-24T09:50:15.841Z,45.00
2022-11-24T09:51:15.723Z,45.00
